createdAt,value
2024-01-20T00:02:25.233Z,100554.97
2024-01-20T00:04:52.482Z,100553.97
2024-01-20T00:07:20.630Z,100565.81
2024-01-20T00:09:51.184Z,100562.88
2024-01-20T00:12:19.049Z,100576.53
2024-01-20T00:14:46.140Z,100569.00
2024-01-20T00:17:21.160Z,100575.66
2024-01-20T00:19:54.229Z,100580.63
2024-01-20T00:22:22.097Z,100578.84
2024-01-20T00:24:49.022Z,100580.63
2024-01-20T00:27:16.141Z,100579.50
2024-01-20T00:29:42.853Z,100588.16
2024-01-20T00:32:09.898Z,100580.63
2024-01-20T00:34:50.600Z,100582.97
2024-01-20T00:37:23.739Z,100576.00
2024-01-20T00:39:50.240Z,100567.75
2024-01-20T00:42:16.873Z,100569.19
2024-01-20T00:44:43.797Z,100592.53
2024-01-20T00:47:10.540Z,100586.81
2024-01-20T00:49:37.368Z,100595.97
2024-01-20T00:52:04.225Z,100601.94
2024-01-20T00:54:30.771Z,100590.59
2024-01-20T00:56:57.225Z,100594.06
2024-01-20T00:59:23.947Z,100611.94
2024-01-20T01:01:50.640Z,100617.91
2024-01-20T01:04:17.527Z,100613.53
2024-01-20T01:06:44.190Z,100609.09
2024-01-20T01:09:11.018Z,100623.84
2024-01-20T01:11:37.544Z,100626.19
2024-01-20T01:14:04.168Z,100621.66
2024-01-20T01:16:30.747Z,100615.44
2024-01-20T01:18:57.959Z,100633.72
2024-01-20T01:21:24.807Z,100630.06
2024-01-20T01:23:51.297Z,100643.16
2024-01-20T01:26:18.809Z,100639.69
2024-01-20T01:28:45.636Z,100642.22
2024-01-20T01:31:12.576Z,100643.09
2024-01-20T01:33:39.360Z,100635.47
2024-01-20T01:36:06.626Z,100635.16
2024-01-20T01:38:33.460Z,100636.13
2024-01-20T01:41:00.364Z,100635.16
2024-01-20T01:43:27.014Z,100643.50
2024-01-20T01:45:53.644Z,100656.91
2024-01-20T01:48:22.041Z,100633.63
2024-01-20T01:50:50.083Z,100647.53
2024-01-20T01:53:16.834Z,100638.19
2024-01-20T01:55:44.968Z,100647.47
2024-01-20T01:58:11.602Z,100646.44
2024-01-20T02:00:38.519Z,100642.06
2024-01-20T02:03:05.721Z,100655.00
2024-01-20T02:05:32.450Z,100655.88
2024-01-20T02:07:59.902Z,100661.06
2024-01-20T02:10:26.540Z,100652.31
2024-01-20T02:12:53.608Z,100665.50
2024-01-20T02:15:20.282Z,100665.41
2024-01-20T02:17:54.913Z,100663.84
2024-01-20T02:20:21.524Z,100664.69
2024-01-20T02:22:48.185Z,100675.09
2024-01-20T02:25:14.759Z,100674.84
2024-01-20T02:27:41.477Z,100671.50
2024-01-20T02:30:08.565Z,100670.59
2024-01-20T02:32:35.309Z,100676.69
2024-01-20T02:35:01.894Z,100673.13
2024-01-20T02:37:28.458Z,100683.28
2024-01-20T02:39:54.981Z,100684.88
2024-01-20T02:42:21.635Z,100668.69
2024-01-20T02:44:48.282Z,100682.47
2024-01-20T02:47:15.214Z,100682.41
2024-01-20T02:49:41.939Z,100681.44
2024-01-20T02:52:08.631Z,100691.69
2024-01-20T02:54:35.203Z,100690.09
2024-01-20T02:57:01.883Z,100697.66
2024-01-20T02:59:28.697Z,100692.47
2024-01-20T03:01:55.200Z,100691.47
2024-01-20T03:04:21.936Z,100704.25
2024-01-20T03:06:48.541Z,100690.72
2024-01-20T03:09:16.081Z,100687.09
2024-01-20T03:11:45.709Z,100700.50
2024-01-20T03:14:12.743Z,100691.50
2024-01-20T03:16:39.710Z,100703.91
2024-01-20T03:19:07.641Z,100719.16
2024-01-20T03:21:35.348Z,100704.56
2024-01-20T03:24:02.088Z,100729.50
2024-01-20T03:26:28.962Z,100729.34
2024-01-20T03:28:55.583Z,100727.75
2024-01-20T03:31:22.161Z,100731.25
2024-01-20T03:33:48.772Z,100738.25
2024-01-20T03:36:15.354Z,100736.66
2024-01-20T03:38:41.897Z,100728.84
2024-01-20T03:41:08.470Z,100735.63
2024-01-20T03:43:34.956Z,100741.56
2024-01-20T03:46:01.539Z,100719.72
2024-01-20T03:48:28.211Z,100746.09
2024-01-20T03:50:54.856Z,100752.31
2024-01-20T03:53:21.555Z,100752.41
2024-01-20T03:55:48.014Z,100744.59
2024-01-20T03:58:14.513Z,100728.22
2024-01-20T04:00:41.105Z,100745.81
2024-01-20T04:03:07.835Z,100752.81
2024-01-20T04:05:34.406Z,100751.94
2024-01-20T04:08:00.930Z,100761.06
2024-01-20T04:10:27.515Z,100749.25
2024-01-20T04:12:54.012Z,100753.97
2024-01-20T04:15:20.617Z,100743.03
2024-01-20T04:17:47.260Z,100750.50
2024-01-20T04:20:13.958Z,100734.75
2024-01-20T04:22:40.522Z,100739.03
2024-01-20T04:25:07.765Z,100739.66
2024-01-20T04:27:41.210Z,100725.66
2024-01-20T04:30:12.623Z,100725.66
2024-01-20T04:32:39.205Z,100731.47
2024-01-20T04:35:06.950Z,100735.69
2024-01-20T04:37:33.616Z,100744.25
2024-01-20T04:40:01.417Z,100747.50
2024-01-20T04:42:28.028Z,100754.16
2024-01-20T04:44:54.626Z,100763.72
2024-01-20T04:47:21.188Z,100782.53
2024-01-20T04:49:49.832Z,100785.53
2024-01-20T04:52:16.396Z,100779.66
2024-01-20T04:54:42.933Z,100782.72
2024-01-20T04:57:10.359Z,100787.19
2024-01-20T04:59:36.893Z,100773.75
2024-01-20T05:02:03.734Z,100794.84
2024-01-20T05:04:30.327Z,100799.84
2024-01-20T05:06:56.986Z,100803.72
2024-01-20T05:09:23.638Z,100818.16
2024-01-20T05:11:50.169Z,100823.00
2024-01-20T05:14:16.857Z,100823.78
2024-01-20T05:16:43.325Z,100823.50
2024-01-20T05:19:10.129Z,100826.06
2024-01-20T05:21:38.850Z,100825.53
2024-01-20T05:24:06.364Z,100830.00
2024-01-20T05:26:33.792Z,100823.88
2024-01-20T05:29:00.937Z,100833.94
2024-01-20T05:31:32.707Z,100841.72
2024-01-20T05:34:00.028Z,100837.88
2024-01-20T05:36:26.893Z,100847.31
2024-01-20T05:38:53.476Z,100845.22
2024-01-20T05:41:20.126Z,100842.59
2024-01-20T05:43:46.642Z,100843.66
2024-01-20T05:46:13.104Z,100854.31
2024-01-20T05:48:39.794Z,100842.69
2024-01-20T05:51:06.881Z,100851.88
2024-01-20T05:53:33.557Z,100851.81
2024-01-20T05:56:00.117Z,100856.16
2024-01-20T05:58:26.670Z,100858.72
2024-01-20T06:00:53.320Z,100873.06
2024-01-20T06:03:20.006Z,100876.91
2024-01-20T06:05:46.815Z,100892.69
2024-01-20T06:08:13.351Z,100882.59
2024-01-20T06:10:40.471Z,100884.97
2024-01-20T06:13:07.170Z,100895.03
2024-01-20T06:15:33.876Z,100894.25
2024-01-20T06:18:00.527Z,100899.59
2024-01-20T06:20:27.527Z,100898.66
2024-01-20T06:22:54.111Z,100902.84
2024-01-20T06:25:20.687Z,100909.88
2024-01-20T06:27:47.587Z,100905.06
2024-01-20T06:30:14.440Z,100914.22
2024-01-20T06:32:41.056Z,100913.34
2024-01-20T06:35:08.636Z,100923.88
2024-01-20T06:37:35.649Z,100920.56
2024-01-20T06:40:02.278Z,100925.56
2024-01-20T06:42:28.825Z,100921.78
2024-01-20T06:44:57.225Z,100916.69
2024-01-20T06:47:24.883Z,100933.25
2024-01-20T06:49:51.593Z,100935.72
2024-01-20T06:52:18.138Z,100947.91
2024-01-20T06:54:44.763Z,100950.28
2024-01-20T06:57:11.436Z,100954.56
2024-01-20T06:59:38.445Z,100970.78
2024-01-20T07:02:05.270Z,100976.28
2024-01-20T07:04:32.380Z,100975.00
2024-01-20T07:06:59.087Z,100984.72
2024-01-20T07:09:26.688Z,100993.31
2024-01-20T07:11:56.548Z,100984.28
2024-01-20T07:14:24.847Z,100988.56
2024-01-20T07:16:51.722Z,100993.84
2024-01-20T07:19:18.444Z,100993.22
2024-01-20T07:21:45.009Z,100999.25
2024-01-20T07:24:11.595Z,101013.09
2024-01-20T07:26:38.191Z,101000.84
2024-01-20T07:29:04.753Z,101013.81
2024-01-20T07:31:31.300Z,100983.47
2024-01-20T07:33:57.945Z,101004.53
2024-01-20T07:36:24.551Z,101025.38
2024-01-20T07:38:51.093Z,101016.63
2024-01-20T07:41:17.560Z,101014.00
2024-01-20T07:43:45.251Z,101028.16
2024-01-20T07:46:12.294Z,101042.75
2024-01-20T07:48:38.821Z,101031.44
2024-01-20T07:51:05.568Z,101038.09
2024-01-20T07:53:32.042Z,101035.38
2024-01-20T07:55:58.927Z,101037.66
2024-01-20T07:58:25.735Z,101052.03
2024-01-20T08:00:52.471Z,101021.25
2024-01-20T08:03:19.097Z,101055.28
2024-01-20T08:05:47.061Z,101059.13
2024-01-20T08:08:13.987Z,101050.19
2024-01-20T08:10:40.725Z,101054.16
2024-01-20T08:13:07.330Z,101055.31
2024-01-20T08:15:36.694Z,101056.59
2024-01-20T08:18:03.593Z,101065.91
2024-01-20T08:20:30.364Z,101052.09
2024-01-20T08:22:57.729Z,101059.13
2024-01-20T08:25:24.361Z,101070.50
2024-01-20T08:27:50.952Z,101051.22
2024-01-20T08:30:17.650Z,101068.69
2024-01-20T08:32:44.292Z,101066.53
2024-01-20T08:35:11.829Z,101078.22
2024-01-20T08:37:38.508Z,101065.75
2024-01-20T08:40:05.470Z,101063.84
2024-01-20T08:42:32.102Z,101070.06
2024-01-20T08:44:58.727Z,101074.78
2024-01-20T08:47:25.298Z,101093.34
2024-01-20T08:49:53.241Z,101094.13
2024-01-20T08:52:20.289Z,101088.72
2024-01-20T08:54:48.136Z,101085.59
2024-01-20T08:57:15.138Z,101093.28
2024-01-20T08:59:41.740Z,101094.03
2024-01-20T09:02:08.822Z,101095.56
2024-01-20T09:04:36.013Z,101111.34
2024-01-20T09:07:03.146Z,101113.06
2024-01-20T09:09:29.810Z,101119.44
2024-01-20T09:11:56.540Z,101119.81
2024-01-20T09:14:23.100Z,101114.31
2024-01-20T09:16:49.793Z,101103.00
2024-01-20T09:19:17.105Z,101128.22
2024-01-20T09:21:47.815Z,101126.72
2024-01-20T09:24:14.928Z,101122.13
2024-01-20T09:26:41.672Z,101119.59
2024-01-20T09:29:08.209Z,101112.34
2024-01-20T09:31:34.830Z,101111.97
2024-01-20T09:34:01.413Z,101104.63
2024-01-20T09:36:29.052Z,101116.06
2024-01-20T09:38:55.669Z,101104.63
2024-01-20T09:41:22.611Z,101108.63
2024-01-20T09:43:49.415Z,101116.97
2024-01-20T09:46:16.533Z,101104.63
2024-01-20T09:48:44.586Z,101091.97
2024-01-20T09:51:11.929Z,101095.19
2024-01-20T09:53:39.979Z,101100.59
2024-01-20T09:56:07.088Z,101098.19
2024-01-20T09:58:36.451Z,101090.22
2024-01-20T10:01:04.250Z,101089.25
2024-01-20T10:03:35.944Z,101091.72
2024-01-20T10:06:02.693Z,101094.41
2024-01-20T10:08:29.195Z,101092.91
2024-01-20T10:11:05.692Z,101091.47
2024-01-20T10:13:32.538Z,101086.72
2024-01-20T10:15:59.323Z,101096.34
2024-01-20T10:18:26.110Z,101087.25
2024-01-20T10:21:03.667Z,101084.16
2024-01-20T10:23:30.584Z,101097.75
2024-01-20T10:26:01.361Z,101087.03
2024-01-20T10:28:27.899Z,101086.78
2024-01-20T10:30:54.859Z,101086.88
2024-01-20T10:33:21.626Z,101084.56
2024-01-20T10:35:48.256Z,101083.44
2024-01-20T10:38:15.679Z,101088.84
2024-01-20T10:40:44.370Z,101065.81
2024-01-20T10:43:16.080Z,101088.66
2024-01-20T10:45:53.237Z,101101.97
2024-01-20T10:48:22.605Z,101095.06
2024-01-20T10:50:59.334Z,101098.63
2024-01-20T10:53:29.298Z,101099.38
2024-01-20T10:55:56.249Z,101097.22
2024-01-20T10:58:28.885Z,101095.22
2024-01-20T11:00:56.065Z,101088.69
2024-01-20T11:03:23.416Z,101088.22
2024-01-20T11:05:50.070Z,101071.19
2024-01-20T11:08:25.188Z,101095.16
2024-01-20T11:10:54.513Z,101091.91
2024-01-20T11:13:24.824Z,101100.88
2024-01-20T11:15:52.448Z,101096.94
2024-01-20T11:18:24.282Z,101101.50
2024-01-20T11:21:17.245Z,101104.69
2024-01-20T11:23:59.629Z,101101.75
2024-01-20T11:26:37.415Z,101098.00
2024-01-20T11:29:08.932Z,101099.44
2024-01-20T11:31:36.028Z,101091.44
2024-01-20T11:34:04.405Z,101093.63
2024-01-20T11:36:32.382Z,101093.19
2024-01-20T11:39:00.216Z,101096.38
2024-01-20T11:41:27.917Z,101102.06
2024-01-20T11:43:54.473Z,101091.44
2024-01-20T11:46:21.336Z,101086.13
2024-01-20T11:48:48.747Z,101086.59
2024-01-20T11:51:16.493Z,101081.97
2024-01-20T11:53:44.441Z,101086.28
2024-01-20T11:56:10.963Z,101085.69
2024-01-20T11:58:37.570Z,101087.56
2024-01-20T12:01:04.588Z,101085.09
2024-01-20T12:03:31.281Z,101082.06
2024-01-20T12:06:05.450Z,101073.97
2024-01-20T12:08:32.546Z,101078.13
2024-01-20T12:10:59.121Z,101069.63
2024-01-20T12:13:27.899Z,101071.59
2024-01-20T12:15:55.211Z,101062.28
2024-01-20T12:18:22.223Z,101058.94
2024-01-20T12:20:48.964Z,101056.47
2024-01-20T12:23:21.924Z,101043.94
2024-01-20T12:25:55.893Z,101048.81
2024-01-20T12:28:22.885Z,101054.63
2024-01-20T12:30:49.939Z,101053.56
2024-01-20T12:33:16.678Z,101051.78
2024-01-20T12:35:43.315Z,101049.41
2024-01-20T12:38:10.017Z,101043.84
2024-01-20T12:40:36.617Z,101042.78
2024-01-20T12:43:03.409Z,101045.16
2024-01-20T12:45:29.995Z,101056.41
2024-01-20T12:47:57.706Z,101058.47
2024-01-20T12:50:24.357Z,101053.72
2024-01-20T12:52:51.067Z,101056.97
2024-01-20T12:55:17.750Z,101049.28
2024-01-20T12:57:44.329Z,101030.88
2024-01-20T13:00:11.786Z,101058.56
2024-01-20T13:02:38.591Z,101048.22
2024-01-20T13:05:05.780Z,101045.47
2024-01-20T13:07:32.306Z,101020.56
2024-01-20T13:09:58.974Z,101048.97
2024-01-20T13:12:25.519Z,101052.47
2024-01-20T13:14:52.136Z,101049.47
2024-01-20T13:17:18.738Z,101050.97
2024-01-20T13:19:45.412Z,101060.47
2024-01-20T13:22:13.481Z,101066.22
2024-01-20T13:24:40.224Z,101055.09
2024-01-20T13:27:07.310Z,101068.44
2024-01-20T13:29:34.733Z,101062.63
2024-01-20T13:32:02.078Z,101061.81
2024-01-20T13:34:28.668Z,101066.94
2024-01-20T13:36:55.228Z,101075.81
2024-01-20T13:39:21.872Z,101077.69
2024-01-20T13:41:48.354Z,101080.69
2024-01-20T13:44:14.832Z,101067.44
2024-01-20T13:46:41.375Z,101067.19
2024-01-20T13:49:10.307Z,101074.22
2024-01-20T13:51:38.485Z,101074.19
2024-01-20T13:54:05.508Z,101078.53
2024-01-20T13:56:32.029Z,101082.19
2024-01-20T13:58:58.479Z,101077.06
2024-01-20T14:01:25.093Z,101087.19
2024-01-20T14:03:52.158Z,101093.03
2024-01-20T14:06:19.556Z,101096.75
2024-01-20T14:08:46.274Z,101093.28
2024-01-20T14:11:12.904Z,101091.63
2024-01-20T14:13:39.412Z,101088.00
2024-01-20T14:16:06.446Z,101090.94
2024-01-20T14:18:33.114Z,101081.28
2024-01-20T14:20:59.703Z,101093.88
2024-01-20T14:23:26.266Z,101092.72
2024-01-20T14:25:54.378Z,101092.19
2024-01-20T14:28:21.097Z,101088.63
2024-01-20T14:30:47.767Z,101088.81
2024-01-20T14:33:14.501Z,101082.81
2024-01-20T14:35:41.075Z,101088.28
2024-01-20T14:38:07.565Z,101090.00
2024-01-20T14:40:34.117Z,101084.78
2024-01-20T14:43:01.968Z,101081.13
2024-01-20T14:45:29.566Z,101089.47
2024-01-20T14:47:56.225Z,101091.97
2024-01-20T14:50:22.777Z,101079.47
2024-01-20T14:52:49.404Z,101102.25
2024-01-20T14:55:16.037Z,101096.84
2024-01-20T14:57:44.514Z,101107.06
2024-01-20T15:00:11.674Z,101098.97
2024-01-20T15:02:38.235Z,101101.53
2024-01-20T15:05:05.403Z,101099.06
2024-01-20T15:07:34.796Z,101109.84
2024-01-20T15:10:02.124Z,101112.84
2024-01-20T15:12:28.767Z,101114.25
2024-01-20T15:14:56.881Z,101122.59
2024-01-20T15:17:23.706Z,101116.88
2024-01-20T15:19:50.612Z,101119.81
2024-01-20T15:22:18.620Z,101127.25
2024-01-20T15:24:45.693Z,101127.59
2024-01-20T15:27:12.564Z,101139.59
2024-01-20T15:29:39.176Z,101139.72
2024-01-20T15:32:06.196Z,101139.34
2024-01-20T15:34:32.916Z,101127.81
2024-01-20T15:36:59.622Z,101138.03
2024-01-20T15:39:26.302Z,101136.13
2024-01-20T15:41:53.432Z,101135.25
2024-01-20T15:44:20.058Z,101130.88
2024-01-20T15:46:46.736Z,101133.03
2024-01-20T15:49:14.929Z,101126.09
2024-01-20T15:51:42.288Z,101126.09
2024-01-20T15:54:09.611Z,101136.22
2024-01-20T15:56:41.936Z,101131.72
2024-01-20T15:59:08.450Z,101129.22
2024-01-20T16:01:35.105Z,101134.81
2024-01-20T16:04:01.766Z,101133.72
2024-01-20T16:06:28.414Z,101131.41
2024-01-20T16:08:57.672Z,101131.94
2024-01-20T16:11:24.357Z,101138.19
2024-01-20T16:13:50.924Z,101131.75
2024-01-20T16:16:17.476Z,101131.91
2024-01-20T16:18:44.091Z,101139.41
2024-01-20T16:21:10.710Z,101133.31
2024-01-20T16:23:37.276Z,101144.25
2024-01-20T16:26:04.200Z,101143.16
2024-01-20T16:28:33.264Z,101154.88
2024-01-20T16:31:00.358Z,101152.22
2024-01-20T16:33:26.988Z,101144.97
2024-01-20T16:35:53.550Z,101159.81
2024-01-20T16:38:20.331Z,101161.53
2024-01-20T16:40:46.851Z,101154.13
2024-01-20T16:43:13.569Z,101147.13
2024-01-20T16:45:40.162Z,101160.59
2024-01-20T16:48:07.198Z,101162.53
2024-01-20T16:50:33.780Z,101165.06
2024-01-20T16:53:03.565Z,101156.00
2024-01-20T16:55:30.147Z,101156.38
2024-01-20T16:57:57.876Z,101162.44
2024-01-20T17:00:24.461Z,101172.66
2024-01-20T17:02:51.063Z,101173.94
2024-01-20T17:05:18.343Z,101168.84
2024-01-20T17:07:46.580Z,101178.22
2024-01-20T17:10:14.655Z,101158.22
2024-01-20T17:12:41.653Z,101172.41
2024-01-20T17:15:09.610Z,101178.84
2024-01-20T17:17:37.061Z,101176.00
2024-01-20T17:20:05.038Z,101180.22
2024-01-20T17:22:31.815Z,101178.59
2024-01-20T17:24:58.315Z,101176.94
2024-01-20T17:27:24.830Z,101187.78
2024-01-20T17:29:51.415Z,101190.97
2024-01-20T17:32:17.977Z,101198.13
2024-01-20T17:34:44.657Z,101193.44
2024-01-20T17:37:11.231Z,101189.16
2024-01-20T17:39:39.058Z,101198.78
2024-01-20T17:42:06.232Z,101203.56
2024-01-20T17:44:33.544Z,101214.47
2024-01-20T17:47:00.618Z,101200.13
2024-01-20T17:49:27.409Z,101209.53
2024-01-20T17:51:54.113Z,101170.94
2024-01-20T17:54:23.640Z,101211.22
2024-01-20T17:56:52.140Z,101210.63
2024-01-20T17:59:18.641Z,101207.97
2024-01-20T18:01:45.421Z,101206.56
2024-01-20T18:04:12.087Z,101200.19
2024-01-20T18:06:41.133Z,101195.72
2024-01-20T18:09:07.757Z,101209.69
2024-01-20T18:11:34.313Z,101207.38
2024-01-20T18:14:00.909Z,101195.03
2024-01-20T18:16:27.454Z,101204.97
2024-01-20T18:18:54.202Z,101209.44
2024-01-20T18:21:20.938Z,101205.91
2024-01-20T18:23:47.464Z,101217.06
2024-01-20T18:26:14.067Z,101217.78
2024-01-20T18:28:40.600Z,101233.31
2024-01-20T18:31:08.614Z,101233.25
2024-01-20T18:33:36.131Z,101227.81
2024-01-20T18:36:06.091Z,101238.63
2024-01-20T18:38:32.640Z,101231.94
2024-01-20T18:40:59.877Z,101237.28
2024-01-20T18:43:26.485Z,101240.91
2024-01-20T18:45:53.002Z,101248.00
2024-01-20T18:48:19.641Z,101249.22
2024-01-20T18:50:46.262Z,101246.22
2024-01-20T18:53:13.923Z,101253.09
2024-01-20T18:55:43.994Z,101247.09
2024-01-20T18:58:12.133Z,101259.78
2024-01-20T19:00:41.108Z,101262.97
2024-01-20T19:03:08.542Z,101260.47
2024-01-20T19:05:35.153Z,101266.56
2024-01-20T19:08:01.723Z,101271.03
2024-01-20T19:10:31.060Z,101268.84
2024-01-20T19:12:57.735Z,101275.72
2024-01-20T19:15:24.372Z,101272.91
2024-01-20T19:17:51.265Z,101281.34
2024-01-20T19:20:23.317Z,101274.31
2024-01-20T19:22:50.628Z,101276.50
2024-01-20T19:25:17.203Z,101267.03
2024-01-20T19:27:44.015Z,101276.00
2024-01-20T19:30:10.969Z,101279.41
2024-01-20T19:32:37.662Z,101280.19
2024-01-20T19:35:04.443Z,101277.91
2024-01-20T19:37:31.257Z,101274.59
2024-01-20T19:39:57.731Z,101276.16
2024-01-20T19:42:24.277Z,101274.16
2024-01-20T19:44:52.146Z,101270.28
2024-01-20T19:47:19.180Z,101268.72
2024-01-20T19:49:46.034Z,101272.81
2024-01-20T19:52:12.671Z,101276.34
2024-01-20T19:54:39.227Z,101265.38
2024-01-20T19:57:06.030Z,101263.72
2024-01-20T19:59:32.597Z,101261.78
2024-01-20T20:01:59.155Z,101266.81
2024-01-20T20:04:25.768Z,101267.66
2024-01-20T20:06:52.647Z,101264.06
2024-01-20T20:09:21.160Z,101271.53
2024-01-20T20:11:48.161Z,101270.66
2024-01-20T20:14:14.853Z,101266.44
2024-01-20T20:16:41.804Z,101279.03
2024-01-20T20:19:09.130Z,101277.09
2024-01-20T20:21:35.768Z,101281.38
2024-01-20T20:24:02.320Z,101280.94
2024-01-20T20:26:28.943Z,101273.41
2024-01-20T20:28:55.420Z,101268.09
2024-01-20T20:31:23.540Z,101276.38
2024-01-20T20:33:50.483Z,101284.78
2024-01-20T20:36:20.098Z,101286.03
2024-01-20T20:38:47.053Z,101282.84
2024-01-20T20:41:13.534Z,101279.63
2024-01-20T20:43:40.016Z,101286.31
2024-01-20T20:46:06.645Z,101278.25
2024-01-20T20:48:33.333Z,101275.72
2024-01-20T20:50:59.938Z,101276.16
2024-01-20T20:53:26.557Z,101273.88
2024-01-20T20:55:53.089Z,101270.75
2024-01-20T20:58:19.564Z,101271.88
2024-01-20T21:00:46.147Z,101272.13
2024-01-20T21:03:12.821Z,101273.53
2024-01-20T21:05:39.797Z,101254.28
2024-01-20T21:08:06.921Z,101279.56
2024-01-20T21:10:33.575Z,101269.66
2024-01-20T21:13:00.829Z,101261.97
2024-01-20T21:15:27.588Z,101270.75
2024-01-20T21:17:54.306Z,101277.66
2024-01-20T21:20:21.171Z,101283.06
2024-01-20T21:22:47.838Z,101286.88
2024-01-20T21:25:14.802Z,101288.09
2024-01-20T21:27:41.598Z,101284.06
2024-01-20T21:30:08.839Z,101277.66
2024-01-20T21:32:35.608Z,101257.28
2024-01-20T21:35:02.946Z,101282.56
2024-01-20T21:37:29.615Z,101275.72
2024-01-20T21:39:56.164Z,101289.16
2024-01-20T21:42:22.768Z,101276.16
2024-01-20T21:44:49.442Z,101291.09
2024-01-20T21:47:16.013Z,101288.25
2024-01-20T21:49:42.607Z,101283.00
2024-01-20T21:52:09.135Z,101281.56
2024-01-20T21:54:35.834Z,101275.25
2024-01-20T21:57:02.461Z,101280.78
2024-01-20T21:59:29.043Z,101284.38
2024-01-20T22:01:55.543Z,101280.69
2024-01-20T22:04:22.371Z,101277.69
2024-01-20T22:06:51.136Z,101301.88
2024-01-20T22:09:18.090Z,101302.66
2024-01-20T22:11:44.745Z,101298.00
2024-01-20T22:14:11.243Z,101298.03
2024-01-20T22:16:37.765Z,101297.78
2024-01-20T22:19:04.352Z,101306.03
2024-01-20T22:21:31.006Z,101298.69
2024-01-20T22:23:57.697Z,101293.91
2024-01-20T22:26:24.244Z,101293.38
2024-01-20T22:28:51.352Z,101295.34
2024-01-20T22:31:19.646Z,101300.56
2024-01-20T22:33:46.207Z,101281.53
2024-01-20T22:36:12.876Z,101306.34
2024-01-20T22:38:39.575Z,101299.19
2024-01-20T22:41:06.350Z,101276.63
2024-01-20T22:43:32.856Z,101299.34
2024-01-20T22:45:59.664Z,101296.63
2024-01-20T22:48:26.588Z,101292.16
2024-01-20T22:50:55.528Z,101293.09
2024-01-20T22:53:21.965Z,101294.47
2024-01-20T22:55:48.447Z,101294.16
2024-01-20T22:58:14.988Z,101299.13
2024-01-20T23:00:41.977Z,101296.59
2024-01-20T23:03:08.640Z,101298.16
2024-01-20T23:05:35.253Z,101303.25
2024-01-20T23:08:01.743Z,101305.59
2024-01-20T23:10:28.192Z,101301.56
2024-01-20T23:12:54.816Z,101295.81
2024-01-20T23:15:21.392Z,101294.84
2024-01-20T23:17:47.975Z,101287.81
2024-01-20T23:20:15.937Z,101296.22
2024-01-20T23:22:42.589Z,101291.44
2024-01-20T23:25:10.455Z,101295.16
2024-01-20T23:27:37.407Z,101288.72
2024-01-20T23:30:04.324Z,101285.00
2024-01-20T23:32:31.120Z,101283.91
2024-01-20T23:34:58.107Z,101298.41
2024-01-20T23:37:24.929Z,101297.13
2024-01-20T23:39:51.549Z,101297.44
2024-01-20T23:42:18.132Z,101298.44
2024-01-20T23:44:44.639Z,101287.47
2024-01-20T23:47:11.151Z,101292.94
2024-01-20T23:49:37.826Z,101288.28
2024-01-20T23:52:05.010Z,101287.78
2024-01-20T23:54:31.600Z,101303.44
2024-01-20T23:56:58.106Z,101290.25
2024-01-20T23:59:24.573Z,101301.00
